createdAt,value
2023-02-22T00:02:25.098Z,3.33
2023-02-22T00:07:28.186Z,3.28
2023-02-22T00:12:32.099Z,3.22
2023-02-22T00:17:34.685Z,3.14
2023-02-22T00:22:37.805Z,3.09
2023-02-22T00:27:44.007Z,3.04
2023-02-22T00:32:48.342Z,3.03
2023-02-22T00:37:53.062Z,3.04
2023-02-22T00:42:55.491Z,2.96
2023-02-22T00:47:57.843Z,2.85
2023-02-22T00:53:01.769Z,2.82
2023-02-22T00:58:05.495Z,2.85
2023-02-22T01:03:11.355Z,2.86
2023-02-22T01:08:16.376Z,2.87
2023-02-22T01:13:19.826Z,2.86
2023-02-22T01:18:23.385Z,2.86
2023-02-22T01:23:26.496Z,2.82
2023-02-22T01:28:29.670Z,2.80
2023-02-22T01:33:34.177Z,2.78
2023-02-22T01:38:38.869Z,2.70
2023-02-22T01:43:42.051Z,2.59
2023-02-22T01:49:02.166Z,2.50
2023-02-22T01:54:29.277Z,2.41
2023-02-22T01:59:37.334Z,2.34
2023-02-22T02:04:42.602Z,2.25
2023-02-22T02:09:52.582Z,2.12
2023-02-22T02:15:17.726Z,2.00
2023-02-22T02:20:36.913Z,1.94
2023-02-22T02:26:11.132Z,1.94
2023-02-22T02:31:19.816Z,1.85
2023-02-22T02:36:44.956Z,1.69
2023-02-22T02:41:50.849Z,1.55
2023-02-22T02:47:01.586Z,1.48
2023-02-22T02:52:05.917Z,1.49
2023-02-22T02:57:09.030Z,1.47
2023-02-22T03:02:21.816Z,1.40
2023-02-22T03:07:34.816Z,1.29
2023-02-22T03:13:15.407Z,1.23
2023-02-22T03:18:40.408Z,1.17
2023-02-22T03:24:04.248Z,1.06
2023-02-22T03:29:10.862Z,0.94
2023-02-22T03:34:22.194Z,0.83
2023-02-22T03:39:31.506Z,0.76
2023-02-22T03:44:37.579Z,0.61
2023-02-22T03:50:07.218Z,0.45
2023-02-22T03:55:12.526Z,0.35
2023-02-22T04:00:20.146Z,0.22
2023-02-22T04:05:25.800Z,0.12
2023-02-22T04:10:29.906Z,0.12
2023-02-22T04:15:32.536Z,0.16
2023-02-22T04:20:35.825Z,0.16
2023-02-22T04:25:40.050Z,0.12
2023-02-22T04:30:44.134Z,0.12
2023-02-22T04:35:46.836Z,0.16
2023-02-22T04:40:48.997Z,0.19
2023-02-22T04:45:52.173Z,0.19
2023-02-22T04:50:55.284Z,0.25
2023-02-22T04:55:57.981Z,0.26
2023-02-22T05:01:01.290Z,0.21
2023-02-22T05:06:03.336Z,0.25
2023-02-22T05:11:06.514Z,0.30
2023-02-22T05:16:46.924Z,0.34
2023-02-22T05:21:50.149Z,0.36
2023-02-22T05:26:53.492Z,0.43
2023-02-22T05:31:59.684Z,0.46
2023-02-22T05:37:04.293Z,0.45
2023-02-22T05:42:07.246Z,0.45
2023-02-22T05:47:10.297Z,0.47
2023-02-22T05:52:13.686Z,0.54
2023-02-22T05:57:16.708Z,0.59
2023-02-22T06:02:19.815Z,0.54
2023-02-22T06:07:23.362Z,0.52
2023-02-22T06:12:26.529Z,0.50
2023-02-22T06:17:30.897Z,0.54
2023-02-22T06:22:33.341Z,0.67
2023-02-22T06:27:37.292Z,0.76
2023-02-22T06:32:40.431Z,0.88
2023-02-22T06:37:43.659Z,1.08
2023-02-22T06:42:49.767Z,1.23
2023-02-22T06:47:53.644Z,1.26
2023-02-22T06:52:59.013Z,1.37
2023-02-22T06:58:03.710Z,1.49
2023-02-22T07:03:07.667Z,1.60
2023-02-22T07:08:11.692Z,1.72
2023-02-22T07:13:15.068Z,1.94
2023-02-22T07:18:18.779Z,2.13
2023-02-22T07:23:24.559Z,2.23
2023-02-22T07:28:28.837Z,2.33
2023-02-22T07:33:31.659Z,2.47
2023-02-22T07:38:34.681Z,2.62
2023-02-22T07:43:38.326Z,2.78
2023-02-22T07:48:42.852Z,2.94
2023-02-22T07:53:46.917Z,3.07
2023-02-22T07:58:50.803Z,3.22
2023-02-22T08:03:54.193Z,3.36
2023-02-22T08:08:58.331Z,3.53
2023-02-22T08:14:01.298Z,3.58
2023-02-22T08:19:03.385Z,3.72
2023-02-22T08:24:07.685Z,3.94
2023-02-22T08:29:10.986Z,4.14
2023-02-22T08:34:13.814Z,4.30
2023-02-22T08:39:17.279Z,4.59
2023-02-22T08:44:21.498Z,4.89
2023-02-22T08:49:24.629Z,5.15
2023-02-22T08:54:28.254Z,5.32
2023-02-22T08:59:32.114Z,5.44
2023-02-22T09:04:36.738Z,5.43
2023-02-22T09:09:42.620Z,5.40
2023-02-22T09:14:46.165Z,5.36
2023-02-22T09:19:48.778Z,5.30
2023-02-22T09:24:53.703Z,5.46
2023-02-22T09:29:58.482Z,5.69
2023-02-22T09:35:01.907Z,5.89
2023-02-22T09:40:10.150Z,5.88
2023-02-22T09:45:48.787Z,5.79
2023-02-22T09:50:55.267Z,5.68
2023-02-22T09:56:07.686Z,5.73
2023-02-22T10:01:27.860Z,5.73
2023-02-22T10:06:33.756Z,5.61
2023-02-22T10:12:00.889Z,5.57
2023-02-22T10:17:32.012Z,5.62
2023-02-22T10:22:43.815Z,5.68
2023-02-22T10:27:57.612Z,5.73
2023-02-22T10:33:12.176Z,5.73
2023-02-22T10:38:16.339Z,5.75
2023-02-22T10:43:20.262Z,5.80
2023-02-22T10:48:28.383Z,5.84
2023-02-22T10:53:32.931Z,5.79
2023-02-22T10:58:47.849Z,5.81
2023-02-22T11:04:12.656Z,5.79
2023-02-22T11:09:24.522Z,5.78
2023-02-22T11:14:31.103Z,5.79
2023-02-22T11:19:37.037Z,5.71
2023-02-22T11:24:49.443Z,5.75
2023-02-22T11:29:53.174Z,5.87
2023-02-22T11:35:29.076Z,5.95
2023-02-22T11:40:33.921Z,6.01
2023-02-22T11:45:49.838Z,6.01
2023-02-22T11:51:28.148Z,6.01
2023-02-22T11:56:44.679Z,6.12
2023-02-22T12:01:57.672Z,6.34
2023-02-22T12:07:10.724Z,6.29
2023-02-22T12:12:31.127Z,6.18
2023-02-22T12:17:43.617Z,6.37
2023-02-22T12:23:20.365Z,6.54
2023-02-22T12:28:37.951Z,6.65
2023-02-22T12:34:01.410Z,6.83
2023-02-22T12:39:26.763Z,6.84
2023-02-22T12:44:36.027Z,6.74
2023-02-22T12:49:43.321Z,6.65
2023-02-22T12:54:56.352Z,6.56
2023-02-22T13:00:12.113Z,6.63
2023-02-22T13:05:20.968Z,6.80
2023-02-22T13:10:34.536Z,6.63
2023-02-22T13:15:59.885Z,6.60
2023-02-22T13:21:30.604Z,6.59
2023-02-22T13:26:39.846Z,6.56
2023-02-22T13:32:20.833Z,6.46
2023-02-22T13:38:01.189Z,6.24
2023-02-22T13:43:25.506Z,6.12
2023-02-22T13:48:38.961Z,6.15
2023-02-22T13:53:56.314Z,6.18
2023-02-22T13:59:03.671Z,6.22
2023-02-22T14:04:24.657Z,6.25
2023-02-22T14:09:49.076Z,6.19
2023-02-22T14:15:29.768Z,6.01
2023-02-22T14:20:40.141Z,5.92
2023-02-22T14:25:44.553Z,5.95
2023-02-22T14:30:49.158Z,5.98
2023-02-22T14:35:55.849Z,5.93
2023-02-22T14:41:03.096Z,5.80
2023-02-22T14:46:13.428Z,5.66
2023-02-22T14:51:26.951Z,5.57
2023-02-22T14:56:54.310Z,5.35
2023-02-22T15:02:15.367Z,5.04
2023-02-22T15:07:27.904Z,4.83
2023-02-22T15:12:31.875Z,4.69
2023-02-22T15:17:35.014Z,4.55
2023-02-22T15:22:38.746Z,4.44
2023-02-22T15:27:47.555Z,4.30
2023-02-22T15:33:03.549Z,4.23
2023-02-22T15:38:13.507Z,4.15
2023-02-22T15:43:25.751Z,4.04
2023-02-22T15:48:32.232Z,3.90
2023-02-22T15:53:45.291Z,3.78
2023-02-22T15:58:54.227Z,3.67
2023-02-22T16:03:59.088Z,3.59
2023-02-22T16:09:25.558Z,3.53
2023-02-22T16:14:30.204Z,3.50
2023-02-22T16:19:42.649Z,3.36
2023-02-22T16:24:52.192Z,3.15
2023-02-22T16:30:29.598Z,3.02
2023-02-22T16:35:35.200Z,2.86
2023-02-22T16:40:44.798Z,2.76
2023-02-22T16:45:48.464Z,2.66
2023-02-22T16:50:54.007Z,2.50
2023-02-22T16:56:03.242Z,2.30
2023-02-22T17:01:06.634Z,2.19
2023-02-22T17:06:12.568Z,2.06
2023-02-22T17:11:16.989Z,1.87
2023-02-22T17:16:22.170Z,1.68
2023-02-22T17:21:25.912Z,1.57
2023-02-22T17:26:30.030Z,1.45
2023-02-22T17:31:35.359Z,1.37
2023-02-22T17:36:38.360Z,1.28
2023-02-22T17:41:41.787Z,1.18
2023-02-22T17:46:45.544Z,1.11
2023-02-22T17:51:49.869Z,1.09
2023-02-22T17:56:56.789Z,1.03
2023-02-22T18:02:01.885Z,0.94
2023-02-22T18:07:06.077Z,0.84
2023-02-22T18:12:10.948Z,0.76
2023-02-22T18:17:14.623Z,0.72
2023-02-22T18:22:20.388Z,0.66
2023-02-22T18:27:25.613Z,0.60
2023-02-22T18:32:31.991Z,0.50
2023-02-22T18:37:35.202Z,0.44
2023-02-22T18:42:39.520Z,0.42
2023-02-22T18:47:43.384Z,0.39
2023-02-22T18:52:46.640Z,0.33
2023-02-22T18:57:56.468Z,0.23
2023-02-22T19:03:00.597Z,0.13
2023-02-22T19:08:04.520Z,0.06
2023-02-22T19:13:11.523Z,0.02
2023-02-22T19:18:16.946Z,-0.04
2023-02-22T19:23:20.097Z,-0.14
2023-02-22T19:28:29.031Z,-0.22
2023-02-22T19:33:32.333Z,-0.31
2023-02-22T19:38:37.451Z,-0.31
2023-02-22T19:43:41.532Z,-0.29
2023-02-22T19:48:46.536Z,-0.31
2023-02-22T19:53:50.247Z,-0.31
2023-02-22T19:58:56.246Z,-0.35
2023-02-22T20:04:03.770Z,-0.35
2023-02-22T20:09:20.763Z,-0.27
2023-02-22T20:14:28.852Z,-0.22
2023-02-22T20:19:33.101Z,-0.19
2023-02-22T20:24:38.032Z,-0.19
2023-02-22T20:29:42.444Z,-0.20
2023-02-22T20:34:47.102Z,-0.24
2023-02-22T20:39:54.890Z,-0.26
2023-02-22T20:45:01.606Z,-0.25
2023-02-22T20:50:06.062Z,-0.21
2023-02-22T20:55:11.837Z,-0.19
2023-02-22T21:00:19.266Z,-0.22
2023-02-22T21:05:22.342Z,-0.24
2023-02-22T21:10:29.940Z,-0.28
2023-02-22T21:15:35.235Z,-0.34
2023-02-22T21:20:41.842Z,-0.41
2023-02-22T21:25:51.729Z,-0.43
2023-02-22T21:30:55.170Z,-0.42
2023-02-22T21:35:57.535Z,-0.49
2023-02-22T21:41:03.094Z,-0.56
2023-02-22T21:46:07.668Z,-0.63
2023-02-22T21:51:23.333Z,-0.70
2023-02-22T21:56:29.685Z,-0.67
2023-02-22T22:01:36.956Z,-0.63
2023-02-22T22:06:39.232Z,-0.65
2023-02-22T22:11:42.301Z,-0.74
2023-02-22T22:16:50.217Z,-0.79
2023-02-22T22:21:53.955Z,-0.87
2023-02-22T22:26:56.251Z,-0.98
2023-02-22T22:31:59.069Z,-1.04
2023-02-22T22:37:02.741Z,-1.06
2023-02-22T22:42:05.465Z,-1.09
2023-02-22T22:47:12.973Z,-1.13
2023-02-22T22:52:16.247Z,-1.20
2023-02-22T22:57:19.623Z,-1.26
2023-02-22T23:02:24.641Z,-1.30
2023-02-22T23:07:28.420Z,-1.33
2023-02-22T23:12:31.585Z,-1.31
2023-02-22T23:17:41.025Z,-1.31
2023-02-22T23:22:47.475Z,-1.31
2023-02-22T23:27:51.291Z,-1.29
2023-02-22T23:33:00.695Z,-1.23
2023-02-22T23:38:08.362Z,-1.19
2023-02-22T23:43:12.995Z,-1.18
2023-02-22T23:48:20.752Z,-1.13
2023-02-22T23:53:26.073Z,-1.08
2023-02-22T23:58:30.280Z,-1.10
